createdAt,value
2023-05-21T00:00:39.716Z,24.50
2023-05-21T00:03:01.419Z,23.17
2023-05-21T00:05:22.957Z,24.20
2023-05-21T00:07:45.906Z,19.67
2023-05-21T00:10:07.915Z,20.70
2023-05-21T00:12:29.419Z,19.60
2023-05-21T00:14:50.985Z,19.90
2023-05-21T00:17:12.459Z,20.23
2023-05-21T00:19:34.010Z,19.83
2023-05-21T00:21:56.096Z,24.30
2023-05-21T00:24:17.620Z,23.53
2023-05-21T00:26:39.101Z,21.93
2023-05-21T00:29:00.859Z,24.10
2023-05-21T00:31:22.385Z,21.77
2023-05-21T00:33:43.858Z,20.93
2023-05-21T00:36:06.129Z,20.10
2023-05-21T00:38:27.844Z,21.10
2023-05-21T00:40:50.446Z,20.30
2023-05-21T00:43:11.965Z,21.83
2023-05-21T00:45:33.581Z,19.77
2023-05-21T00:47:55.758Z,21.83
2023-05-21T00:50:17.564Z,21.60
2023-05-21T00:52:42.232Z,20.50
2023-05-21T00:55:04.261Z,21.90
2023-05-21T00:57:27.210Z,20.43
2023-05-21T00:59:53.020Z,19.20
2023-05-21T01:02:18.128Z,20.33
2023-05-21T01:04:39.763Z,20.63
2023-05-21T01:07:01.949Z,18.23
2023-05-21T01:09:23.473Z,19.77
2023-05-21T01:11:50.050Z,21.23
2023-05-21T01:14:14.755Z,21.97
2023-05-21T01:16:37.772Z,19.93
2023-05-21T01:18:59.735Z,21.93
2023-05-21T01:21:25.300Z,18.63
2023-05-21T01:23:47.082Z,21.00
2023-05-21T01:26:08.701Z,20.87
2023-05-21T01:28:30.162Z,21.90
2023-05-21T01:30:51.976Z,20.53
2023-05-21T01:33:52.677Z,19.73
2023-05-21T01:36:29.091Z,18.10
2023-05-21T01:39:09.292Z,20.87
2023-05-21T01:41:36.980Z,19.37
2023-05-21T01:43:59.101Z,21.07
2023-05-21T01:46:24.196Z,21.63
2023-05-21T01:48:46.831Z,22.07
2023-05-21T01:51:08.769Z,22.87
2023-05-21T01:53:30.523Z,23.73
2023-05-21T01:55:52.164Z,19.13
2023-05-21T01:58:13.843Z,20.43
2023-05-21T02:00:35.585Z,18.33
2023-05-21T02:02:57.169Z,19.77
2023-05-21T02:05:18.747Z,19.70
2023-05-21T02:07:41.013Z,20.63
2023-05-21T02:10:02.487Z,19.43
2023-05-21T02:12:24.287Z,21.07
2023-05-21T02:14:50.874Z,22.60
2023-05-21T02:17:12.356Z,19.87
2023-05-21T02:19:34.281Z,22.17
2023-05-21T02:21:56.298Z,22.43
2023-05-21T02:24:17.887Z,19.17
2023-05-21T02:26:39.406Z,23.50
2023-05-21T02:29:00.876Z,22.40
2023-05-21T02:31:22.346Z,21.40
2023-05-21T02:33:43.898Z,19.37
2023-05-21T02:36:05.962Z,20.80
2023-05-21T02:38:27.484Z,20.27
2023-05-21T02:40:51.944Z,20.53
2023-05-21T02:43:16.067Z,19.27
2023-05-21T02:45:38.037Z,18.77
2023-05-21T02:47:59.772Z,21.63
2023-05-21T02:50:22.796Z,18.63
2023-05-21T02:52:44.360Z,19.97
2023-05-21T02:55:06.322Z,18.70
2023-05-21T02:57:27.813Z,22.17
2023-05-21T02:59:49.342Z,19.67
2023-05-21T03:02:10.901Z,22.47
2023-05-21T03:04:33.189Z,21.70
2023-05-21T03:06:55.351Z,21.23
2023-05-21T03:09:16.816Z,20.73
2023-05-21T03:11:38.294Z,18.43
2023-05-21T03:13:59.746Z,21.27
2023-05-21T03:16:22.538Z,18.40
2023-05-21T03:18:45.132Z,19.03
2023-05-21T03:21:06.718Z,21.57
2023-05-21T03:23:28.230Z,19.80
2023-05-21T03:25:50.838Z,18.70
2023-05-21T03:28:12.324Z,19.10
2023-05-21T03:30:33.797Z,21.37
2023-05-21T03:32:56.428Z,19.40
2023-05-21T03:35:18.113Z,23.57
2023-05-21T03:37:39.578Z,21.20
2023-05-21T03:40:01.092Z,19.33
2023-05-21T03:42:22.526Z,18.70
2023-05-21T03:44:43.986Z,19.17
2023-05-21T03:47:05.692Z,20.67
2023-05-21T03:49:27.240Z,19.53
2023-05-21T03:51:48.734Z,18.70
2023-05-21T03:54:10.443Z,19.53
2023-05-21T03:56:31.909Z,18.13
2023-05-21T03:58:53.391Z,20.03
2023-05-21T04:01:14.928Z,18.47
2023-05-21T04:03:39.937Z,18.40
2023-05-21T04:06:03.223Z,19.37
2023-05-21T04:08:24.715Z,17.83
2023-05-21T04:10:46.219Z,20.90
2023-05-21T04:13:07.665Z,19.60
2023-05-21T04:15:29.150Z,21.20
2023-05-21T04:17:50.674Z,21.80
2023-05-21T04:20:13.711Z,22.07
2023-05-21T04:22:35.352Z,21.47
2023-05-21T04:24:56.820Z,19.27
2023-05-21T04:27:19.271Z,20.33
2023-05-21T04:29:43.370Z,20.87
2023-05-21T04:32:05.242Z,20.50
2023-05-21T04:34:26.713Z,22.03
2023-05-21T04:36:48.276Z,19.57
2023-05-21T04:39:09.728Z,21.07
2023-05-21T04:41:31.519Z,19.43
2023-05-21T04:43:55.670Z,25.03
2023-05-21T04:46:17.219Z,21.53
2023-05-21T04:48:39.009Z,24.87
2023-05-21T04:51:00.479Z,19.80
2023-05-21T04:53:23.082Z,21.83
2023-05-21T04:55:44.645Z,19.00
2023-05-21T04:58:07.280Z,22.43
2023-05-21T05:00:28.755Z,23.10
2023-05-21T05:02:50.396Z,22.33
2023-05-21T05:05:12.115Z,19.67
2023-05-21T05:07:33.635Z,23.33
2023-05-21T05:09:55.118Z,22.90
2023-05-21T05:12:16.613Z,21.20
2023-05-21T05:14:38.053Z,20.37
2023-05-21T05:17:00.289Z,21.67
2023-05-21T05:19:21.888Z,21.87
2023-05-21T05:21:43.459Z,22.77
2023-05-21T05:24:05.437Z,22.53
2023-05-21T05:26:27.026Z,23.65
2023-05-21T05:28:48.566Z,22.88
2023-05-21T05:31:10.140Z,23.70
2023-05-21T05:33:31.678Z,26.58
2023-05-21T05:35:53.136Z,25.02
2023-05-21T05:38:14.606Z,25.90
2023-05-21T05:40:36.082Z,26.30
2023-05-21T05:42:57.575Z,24.95
2023-05-21T05:45:20.000Z,23.20
2023-05-21T05:47:41.812Z,27.15
2023-05-21T05:50:03.449Z,25.25
2023-05-21T05:52:24.936Z,28.27
2023-05-21T05:54:47.084Z,24.88
2023-05-21T05:57:08.541Z,25.52
2023-05-21T05:59:30.014Z,26.02
2023-05-21T06:01:51.551Z,29.70
2023-05-21T06:04:13.033Z,25.55
2023-05-21T06:06:34.829Z,26.15
2023-05-21T06:08:56.413Z,25.02
2023-05-21T06:11:19.074Z,28.27
2023-05-21T06:13:41.001Z,25.30
2023-05-21T06:16:03.482Z,24.83
2023-05-21T06:18:25.094Z,25.05
2023-05-21T06:20:46.584Z,24.23
2023-05-21T06:23:08.871Z,25.85
2023-05-21T06:25:30.418Z,27.50
2023-05-21T06:27:51.919Z,24.67
2023-05-21T06:30:13.457Z,25.35
2023-05-21T06:32:34.943Z,25.58
2023-05-21T06:34:56.456Z,25.67
2023-05-21T06:37:26.436Z,25.88
2023-05-21T06:39:48.183Z,26.70
2023-05-21T06:42:09.666Z,25.50
2023-05-21T06:44:31.151Z,25.10
2023-05-21T06:46:52.705Z,24.88
2023-05-21T06:49:14.980Z,25.58
2023-05-21T06:51:36.492Z,25.60
2023-05-21T06:53:57.963Z,24.65
2023-05-21T06:56:19.422Z,23.60
2023-05-21T06:58:41.070Z,24.50
2023-05-21T07:01:02.879Z,25.02
2023-05-21T07:03:24.471Z,25.02
2023-05-21T07:05:46.439Z,24.67
2023-05-21T07:08:08.558Z,24.70
2023-05-21T07:10:30.121Z,24.55
2023-05-21T07:12:51.562Z,22.98
2023-05-21T07:15:14.165Z,22.52
2023-05-21T07:17:35.803Z,23.90
2023-05-21T07:19:57.278Z,24.88
2023-05-21T07:22:18.999Z,24.10
2023-05-21T07:24:40.500Z,25.30
2023-05-21T07:27:04.635Z,22.52
2023-05-21T07:29:30.261Z,22.77
2023-05-21T07:31:51.722Z,23.77
2023-05-21T07:34:13.257Z,24.20
2023-05-21T07:36:34.749Z,23.60
2023-05-21T07:38:56.319Z,23.42
2023-05-21T07:41:18.853Z,22.70
2023-05-21T07:43:40.605Z,22.48
2023-05-21T07:46:02.439Z,23.15
2023-05-21T07:48:23.978Z,21.98
2023-05-21T07:50:45.521Z,22.52
2023-05-21T07:53:07.067Z,22.50
2023-05-21T07:55:28.560Z,22.58
2023-05-21T07:57:52.286Z,22.27
2023-05-21T08:00:14.340Z,26.60
2023-05-21T08:02:36.261Z,23.70
2023-05-21T08:04:58.986Z,23.17
2023-05-21T08:07:21.960Z,22.55
2023-05-21T08:09:43.464Z,22.58
2023-05-21T08:12:05.171Z,20.88
2023-05-21T08:14:26.636Z,21.10
2023-05-21T08:16:48.137Z,22.50
2023-05-21T08:19:09.755Z,21.67
2023-05-21T08:21:32.696Z,22.80
2023-05-21T08:23:54.248Z,20.75
2023-05-21T08:26:18.681Z,21.25
2023-05-21T08:28:40.195Z,21.35
2023-05-21T08:31:02.026Z,22.10
2023-05-21T08:33:23.791Z,21.08
2023-05-21T08:35:45.310Z,21.65
2023-05-21T08:38:06.777Z,20.23
2023-05-21T08:40:28.258Z,20.50
2023-05-21T08:42:50.105Z,22.45
2023-05-21T08:45:14.085Z,21.40
2023-05-21T08:47:37.093Z,21.70
2023-05-21T08:50:00.646Z,20.75
2023-05-21T08:52:22.280Z,19.75
2023-05-21T08:54:45.746Z,19.65
2023-05-21T08:57:08.019Z,19.85
2023-05-21T08:59:29.534Z,19.27
2023-05-21T09:01:52.416Z,19.20
2023-05-21T09:04:21.197Z,18.27
2023-05-21T09:06:43.891Z,21.58
2023-05-21T09:09:14.574Z,17.35
2023-05-21T09:11:36.087Z,17.35
2023-05-21T09:13:58.357Z,16.77
2023-05-21T09:16:20.000Z,17.35
2023-05-21T09:18:41.614Z,16.35
2023-05-21T09:21:25.444Z,15.52
2023-05-21T09:23:48.140Z,15.35
2023-05-21T09:26:12.764Z,19.63
2023-05-21T09:28:36.221Z,17.83
2023-05-21T09:31:03.340Z,14.95
2023-05-21T09:33:26.275Z,16.27
2023-05-21T09:35:47.813Z,14.25
2023-05-21T09:38:09.616Z,14.57
2023-05-21T09:40:31.358Z,14.65
2023-05-21T09:42:56.136Z,14.70
2023-05-21T09:45:27.640Z,14.60
2023-05-21T09:47:51.187Z,15.60
2023-05-21T09:50:14.324Z,14.88
2023-05-21T09:52:41.909Z,15.00
2023-05-21T09:55:07.365Z,16.27
2023-05-21T09:57:29.383Z,15.00
2023-05-21T09:59:51.037Z,15.07
2023-05-21T10:02:18.986Z,16.65
2023-05-21T10:04:41.505Z,15.43
2023-05-21T10:07:04.047Z,15.45
2023-05-21T10:09:27.451Z,14.65
2023-05-21T10:11:52.238Z,14.38
2023-05-21T10:14:20.671Z,15.23
2023-05-21T10:16:43.001Z,14.70
2023-05-21T10:19:10.718Z,14.07
2023-05-21T10:21:33.468Z,15.77
2023-05-21T10:23:58.283Z,14.60
2023-05-21T10:26:21.629Z,14.98
2023-05-21T10:28:44.219Z,14.70
2023-05-21T10:31:06.714Z,13.48
2023-05-21T10:33:29.376Z,14.10
2023-05-21T10:35:53.182Z,14.38
2023-05-21T10:38:18.589Z,14.52
2023-05-21T10:40:40.463Z,14.65
2023-05-21T10:43:20.621Z,14.57
2023-05-21T10:45:50.632Z,12.95
2023-05-21T10:48:33.275Z,13.15
2023-05-21T10:51:22.283Z,12.00
2023-05-21T10:54:02.395Z,11.50
2023-05-21T10:56:30.683Z,12.00
2023-05-21T10:59:22.075Z,10.95
2023-05-21T11:01:45.220Z,11.85
2023-05-21T11:04:07.376Z,10.75
2023-05-21T11:06:29.053Z,11.15
2023-05-21T11:08:53.128Z,10.85
2023-05-21T11:11:42.876Z,10.70
2023-05-21T11:14:31.782Z,10.13
2023-05-21T11:16:53.284Z,10.32
2023-05-21T11:19:19.686Z,11.00
2023-05-21T11:21:41.158Z,10.73
2023-05-21T11:24:05.132Z,10.70
2023-05-21T11:26:29.435Z,11.18
2023-05-21T11:29:06.196Z,10.77
2023-05-21T11:31:29.845Z,10.38
2023-05-21T11:34:14.032Z,7.75
2023-05-21T11:36:37.973Z,6.93
2023-05-21T11:39:10.942Z,12.65
2023-05-21T11:41:50.091Z,7.47
2023-05-21T11:44:11.567Z,7.28
2023-05-21T11:46:34.243Z,7.30
2023-05-21T11:48:56.791Z,7.00
2023-05-21T11:51:18.328Z,10.32
2023-05-21T11:53:44.284Z,9.32
2023-05-21T11:56:09.831Z,10.90
2023-05-21T11:58:31.368Z,12.15
2023-05-21T12:00:53.282Z,11.40
2023-05-21T12:03:15.606Z,12.50
2023-05-21T12:05:49.807Z,12.00
2023-05-21T12:08:11.399Z,11.90
2023-05-21T12:10:32.876Z,12.88
2023-05-21T12:12:56.982Z,12.18
2023-05-21T12:15:19.967Z,16.17
2023-05-21T12:17:41.721Z,15.93
2023-05-21T12:20:07.583Z,13.93
2023-05-21T12:22:29.881Z,12.90
2023-05-21T12:24:53.689Z,14.10
2023-05-21T12:27:16.741Z,13.23
2023-05-21T12:29:39.395Z,13.90
2023-05-21T12:32:02.068Z,13.20
2023-05-21T12:34:43.060Z,13.45
2023-05-21T12:37:06.646Z,13.15
2023-05-21T12:39:30.231Z,13.55
2023-05-21T12:41:54.431Z,13.80
2023-05-21T12:44:16.368Z,13.30
2023-05-21T12:46:37.960Z,12.85
2023-05-21T12:48:59.528Z,13.13
2023-05-21T12:51:21.082Z,13.30
2023-05-21T12:53:43.320Z,13.13
2023-05-21T12:56:12.425Z,13.30
2023-05-21T12:58:33.908Z,12.82
2023-05-21T13:00:56.518Z,12.50
2023-05-21T13:03:19.107Z,13.00
2023-05-21T13:05:41.425Z,11.88
2023-05-21T13:08:03.057Z,11.88
2023-05-21T13:10:24.550Z,12.95
2023-05-21T13:12:46.064Z,13.57
2023-05-21T13:15:08.159Z,13.48
2023-05-21T13:17:29.902Z,13.27
2023-05-21T13:20:15.303Z,12.63
2023-05-21T13:22:39.209Z,12.30
2023-05-21T13:25:01.101Z,12.45
2023-05-21T13:27:22.595Z,13.15
2023-05-21T13:29:44.075Z,13.60
2023-05-21T13:32:06.075Z,13.07
2023-05-21T13:34:27.632Z,13.10
2023-05-21T13:36:49.110Z,12.95
2023-05-21T13:39:10.768Z,12.18
2023-05-21T13:41:32.320Z,16.20
2023-05-21T13:43:53.807Z,11.85
2023-05-21T13:46:15.376Z,13.30
2023-05-21T13:48:36.845Z,14.98
2023-05-21T13:50:58.290Z,12.95
2023-05-21T13:53:19.829Z,14.13
2023-05-21T13:55:41.290Z,13.02
2023-05-21T13:58:03.376Z,12.43
2023-05-21T14:00:24.826Z,13.00
2023-05-21T14:02:46.368Z,13.82
2023-05-21T14:05:08.270Z,11.90
2023-05-21T14:07:29.845Z,11.77
2023-05-21T14:09:52.389Z,12.05
2023-05-21T14:12:13.892Z,12.82
2023-05-21T14:14:36.176Z,11.77
2023-05-21T14:16:57.894Z,12.30
2023-05-21T14:19:19.507Z,12.38
2023-05-21T14:21:41.745Z,11.32
2023-05-21T14:24:03.346Z,11.52
2023-05-21T14:26:24.970Z,13.88
2023-05-21T14:28:46.406Z,12.10
2023-05-21T14:31:08.432Z,11.48
2023-05-21T14:33:32.036Z,12.70
2023-05-21T14:35:53.490Z,11.88
2023-05-21T14:38:15.020Z,12.43
2023-05-21T14:40:36.583Z,12.82
2023-05-21T14:42:58.085Z,12.13
2023-05-21T14:45:19.952Z,11.20
2023-05-21T14:47:41.514Z,11.43
2023-05-21T14:50:03.086Z,11.93
2023-05-21T14:52:24.570Z,12.30
2023-05-21T14:54:46.134Z,11.02
2023-05-21T14:57:07.624Z,11.25
2023-05-21T14:59:29.095Z,10.55
2023-05-21T15:01:50.778Z,9.95
2023-05-21T15:04:12.393Z,11.05
2023-05-21T15:06:34.784Z,9.75
2023-05-21T15:08:56.325Z,9.52
2023-05-21T15:11:17.840Z,8.80
2023-05-21T15:13:39.343Z,9.95
2023-05-21T15:16:00.991Z,9.40
2023-05-21T15:18:24.675Z,10.45
2023-05-21T15:20:46.153Z,12.02
2023-05-21T15:23:16.819Z,11.52
2023-05-21T15:25:39.226Z,11.07
2023-05-21T15:28:00.843Z,12.10
2023-05-21T15:30:22.461Z,11.63
2023-05-21T15:32:44.115Z,11.25
2023-05-21T15:35:05.993Z,11.10
2023-05-21T15:37:27.609Z,10.75
2023-05-21T15:39:49.134Z,12.63
2023-05-21T15:42:11.679Z,12.85
2023-05-21T15:44:33.152Z,9.95
2023-05-21T15:46:54.844Z,11.30
2023-05-21T15:49:16.923Z,10.10
2023-05-21T15:51:38.581Z,10.38
2023-05-21T15:54:00.043Z,8.73
2023-05-21T15:56:22.055Z,9.05
2023-05-21T15:58:43.552Z,9.10
2023-05-21T16:01:05.085Z,8.73
2023-05-21T16:03:26.823Z,7.85
2023-05-21T16:05:48.419Z,9.45
2023-05-21T16:08:11.443Z,7.45
2023-05-21T16:10:32.932Z,7.75
2023-05-21T16:12:54.538Z,6.88
2023-05-21T16:15:16.478Z,7.55
2023-05-21T16:17:38.003Z,8.38
2023-05-21T16:19:59.471Z,9.13
2023-05-21T16:22:21.252Z,8.60
2023-05-21T16:24:42.700Z,9.73
2023-05-21T16:27:05.010Z,7.35
2023-05-21T16:29:26.663Z,7.70
2023-05-21T16:31:48.243Z,7.47
2023-05-21T16:34:09.703Z,8.30
2023-05-21T16:36:31.435Z,9.43
2023-05-21T16:38:52.950Z,11.13
2023-05-21T16:41:14.516Z,8.10
2023-05-21T16:43:36.283Z,7.85
2023-05-21T16:45:57.821Z,8.52
2023-05-21T16:48:19.421Z,7.18
2023-05-21T16:50:41.124Z,7.50
2023-05-21T16:53:02.836Z,9.05
2023-05-21T16:55:24.305Z,7.65
2023-05-21T16:57:46.045Z,10.43
2023-05-21T17:00:08.040Z,7.47
2023-05-21T17:02:29.586Z,9.50
2023-05-21T17:04:51.386Z,8.82
2023-05-21T17:07:12.832Z,7.40
2023-05-21T17:09:34.298Z,8.13
2023-05-21T17:11:56.034Z,8.27
2023-05-21T17:14:32.635Z,8.93
2023-05-21T17:16:55.054Z,7.40
2023-05-21T17:19:16.780Z,8.35
2023-05-21T17:21:38.326Z,8.77
2023-05-21T17:24:00.112Z,9.27
2023-05-21T17:26:22.389Z,9.48
2023-05-21T17:28:43.861Z,7.93
2023-05-21T17:31:08.430Z,8.77
2023-05-21T17:33:29.980Z,9.45
2023-05-21T17:35:51.447Z,8.98
2023-05-21T17:38:14.112Z,9.13
2023-05-21T17:40:35.642Z,9.93
2023-05-21T17:42:57.161Z,9.27
2023-05-21T17:45:19.033Z,8.20
2023-05-21T17:47:40.602Z,8.40
2023-05-21T17:50:02.081Z,9.80
2023-05-21T17:52:23.644Z,10.10
2023-05-21T17:54:45.164Z,10.48
2023-05-21T17:57:06.644Z,8.75
2023-05-21T17:59:28.143Z,7.90
2023-05-21T18:06:06.836Z,10.43
2023-05-21T18:08:29.632Z,9.93
2023-05-21T18:10:51.131Z,8.68
2023-05-21T18:13:12.590Z,9.00
2023-05-21T18:15:34.357Z,8.30
2023-05-21T18:17:55.973Z,8.27
2023-05-21T18:20:18.617Z,8.88
2023-05-21T18:22:40.054Z,8.52
2023-05-21T18:25:02.297Z,10.77
2023-05-21T18:27:23.787Z,9.80
2023-05-21T18:29:46.901Z,10.45
2023-05-21T18:32:08.577Z,8.60
2023-05-21T18:34:30.106Z,8.73
2023-05-21T18:36:54.501Z,8.65
2023-05-21T18:39:16.060Z,8.65
2023-05-21T18:41:38.868Z,10.55
2023-05-21T18:44:01.821Z,9.38
2023-05-21T18:46:23.438Z,9.48
2023-05-21T18:48:46.086Z,8.48
2023-05-21T18:51:07.566Z,8.32
2023-05-21T18:53:29.082Z,8.23
2023-05-21T18:55:50.578Z,8.50
2023-05-21T18:58:12.050Z,9.25
2023-05-21T19:00:34.641Z,12.70
2023-05-21T19:02:56.673Z,10.48
2023-05-21T19:05:18.263Z,9.00
2023-05-21T19:07:43.267Z,10.45
2023-05-21T19:10:05.165Z,8.77
2023-05-21T19:12:27.011Z,11.52
2023-05-21T19:14:48.550Z,8.98
2023-05-21T19:17:10.112Z,10.05
2023-05-21T19:19:31.700Z,8.95
2023-05-21T19:21:53.449Z,9.88
2023-05-21T19:24:14.942Z,10.68
2023-05-21T19:26:36.456Z,11.10
2023-05-21T19:28:57.915Z,10.63
2023-05-21T19:31:20.073Z,10.45
2023-05-21T19:33:41.632Z,8.98
2023-05-21T19:36:03.355Z,9.50
2023-05-21T19:38:24.819Z,13.55
2023-05-21T19:40:46.300Z,9.23
2023-05-21T19:43:07.754Z,11.75
2023-05-21T19:45:29.271Z,11.00
2023-05-21T19:47:51.203Z,9.82
2023-05-21T19:50:12.833Z,11.15
2023-05-21T19:52:34.287Z,9.98
2023-05-21T19:54:56.530Z,10.23
2023-05-21T19:57:18.014Z,9.95
2023-05-21T19:59:39.522Z,12.77
2023-05-21T20:02:01.276Z,10.48
2023-05-21T20:04:22.915Z,11.82
2023-05-21T20:06:44.492Z,10.88
2023-05-21T20:09:07.282Z,11.70
2023-05-21T20:11:28.810Z,10.15
2023-05-21T20:13:50.561Z,11.90
2023-05-21T20:16:12.655Z,10.73
2023-05-21T20:18:34.298Z,10.52
2023-05-21T20:20:56.828Z,13.15
2023-05-21T20:23:18.347Z,10.50
2023-05-21T20:25:39.879Z,9.82
2023-05-21T20:28:01.475Z,11.30
2023-05-21T20:30:23.315Z,14.57
2023-05-21T20:32:44.885Z,13.07
2023-05-21T20:35:09.141Z,10.90
2023-05-21T20:37:32.398Z,10.05
2023-05-21T20:39:57.857Z,9.90
2023-05-21T20:42:19.905Z,10.48
2023-05-21T20:44:41.369Z,9.82
2023-05-21T20:47:06.445Z,11.05
2023-05-21T20:49:28.216Z,10.52
2023-05-21T20:51:49.699Z,10.70
2023-05-21T20:54:11.516Z,11.70
2023-05-21T20:56:42.338Z,13.63
2023-05-21T20:59:04.387Z,11.45
2023-05-21T21:01:30.424Z,11.43
2023-05-21T21:03:51.921Z,10.98
2023-05-21T21:06:14.108Z,15.32
2023-05-21T21:08:35.597Z,12.00
2023-05-21T21:10:57.065Z,11.63
2023-05-21T21:13:18.561Z,11.20
2023-05-21T21:15:40.126Z,11.88
2023-05-21T21:18:01.715Z,10.93
2023-05-21T21:20:23.206Z,11.93
2023-05-21T21:22:45.260Z,10.75
2023-05-21T21:25:07.095Z,12.48
2023-05-21T21:27:28.560Z,11.88
2023-05-21T21:29:50.038Z,10.55
2023-05-21T21:32:12.170Z,12.27
2023-05-21T21:34:33.667Z,12.10
2023-05-21T21:36:55.174Z,12.38
2023-05-21T21:39:17.538Z,12.95
2023-05-21T21:41:39.074Z,11.27
2023-05-21T21:44:01.028Z,12.15
2023-05-21T21:46:22.694Z,11.98
2023-05-21T21:48:44.475Z,11.75
2023-05-21T21:51:06.435Z,17.58
2023-05-21T21:53:27.985Z,12.48
2023-05-21T21:55:50.928Z,12.43
2023-05-21T21:58:12.408Z,11.68
2023-05-21T22:00:33.885Z,11.65
2023-05-21T22:02:55.673Z,11.85
2023-05-21T22:05:17.526Z,10.98
2023-05-21T22:07:42.030Z,11.60
2023-05-21T22:10:03.532Z,11.80
2023-05-21T22:12:25.125Z,12.50
2023-05-21T22:14:46.595Z,13.90
2023-05-21T22:17:08.998Z,14.00
2023-05-21T22:19:32.774Z,11.50
2023-05-21T22:21:54.526Z,11.95
2023-05-21T22:24:30.944Z,11.75
2023-05-21T22:26:53.274Z,11.52
2023-05-21T22:29:14.787Z,12.93
2023-05-21T22:31:36.414Z,10.82
2023-05-21T22:33:57.977Z,11.82
2023-05-21T22:36:19.488Z,12.30
2023-05-21T22:38:41.045Z,13.23
2023-05-21T22:41:03.605Z,13.93
2023-05-21T22:43:26.288Z,12.27
2023-05-21T22:45:47.826Z,11.43
2023-05-21T22:48:09.626Z,12.63
2023-05-21T22:50:32.834Z,12.27
2023-05-21T22:52:54.353Z,13.90
2023-05-21T22:55:16.431Z,11.65
2023-05-21T22:57:38.213Z,11.63
2023-05-21T22:59:59.673Z,11.73
2023-05-21T23:02:21.325Z,12.65
2023-05-21T23:04:44.558Z,12.05
2023-05-21T23:07:06.334Z,12.30
2023-05-21T23:09:27.787Z,12.27
2023-05-21T23:11:49.280Z,11.10
2023-05-21T23:14:10.759Z,12.30
2023-05-21T23:16:32.540Z,12.27
2023-05-21T23:18:54.450Z,12.55
2023-05-21T23:21:16.704Z,12.05
2023-05-21T23:23:38.161Z,12.73
2023-05-21T23:25:59.715Z,12.38
2023-05-21T23:28:21.257Z,11.40
2023-05-21T23:30:42.738Z,14.85
2023-05-21T23:33:04.253Z,11.82
2023-05-21T23:35:25.898Z,11.73
2023-05-21T23:37:47.695Z,13.05
2023-05-21T23:40:09.634Z,12.15
2023-05-21T23:42:31.133Z,14.88
2023-05-21T23:44:53.722Z,12.27
2023-05-21T23:47:15.364Z,12.88
2023-05-21T23:49:36.831Z,12.25
2023-05-21T23:51:58.910Z,12.20
2023-05-21T23:54:20.468Z,13.63
2023-05-21T23:56:41.947Z,12.85
2023-05-21T23:59:03.446Z,12.68
